Lockwood, California
Current Conditions -  °F | °C
As of 7:53 AM on Tuesday 21 Oct 2014 (Local Time) from KPRB Reporting Station
Overcast Overcast  
Wind Chill: 56°   Ceiling: 2500
Heat Index: 56°   Visibility: 10mi
Dew Point: 48°   Wind: 8mph
Humidity: 75%   Direction: 320°NW
Pressure: 30.06"   Gusts: NA
Location:  35.94°N, 121.08°W
Report Text: KPRB 211453Z AUTO 32007KT 10SM OVC025 13/09 A3006 RMK AO2 SLP176 T01330089 53012 TSNO
Loading
Personal Weather Stations






























Interactive Weather Map
Tropical Storm Tracking
New forecast layout! Learn more

10-Day Weather Forecast

Advertisements
Track Severe Weather on mobile